Terminal Aerodrome Forecast
Issued by NWS

Home | Current Version | Previous Version | Graphics & Text | Print | Product List | Glossary On
Versions: 1 2 3 4 5 6 7 8 9 10 11 12 13 14 15 16 17 18 19 20
000
FTUS43 KICT 262149 AAB
TAFSLN
TAF AMD
KSLN 262149Z 2622/2718 12010KT P6SM VCTS BKN040CB OVC080
      TEMPO 2622/2702 VRB30G40KT 2SM +TSRA OVC020CB
     FM270200 17013KT P6SM VCTS BKN035CB
     FM270600 14007KT P6SM OVC015
      TEMPO 2710/2714 OVC008=

USA.gov is the U.S. government's official web portal to all federal, state and local government web resources and services.